sensor_id;sensor_type;location;lat;lon;timestamp;P1;durP1;ratioP1;P2;durP2;ratioP2
19329;SDS011;9799;48.214;16.388;2023-09-30T00:02:32;10.50;;;9.40;;
19329;SDS011;9799;48.214;16.388;2023-09-30T00:05:54;13.88;;;9.63;;
19329;SDS011;9799;48.214;16.388;2023-09-30T00:09:15;11.60;;;9.85;;
19329;SDS011;9799;48.214;16.388;2023-09-30T00:12:38;11.75;;;9.45;;
19329;SDS011;9799;48.214;16.388;2023-09-30T00:15:59;13.40;;;11.07;;
19329;SDS011;9799;48.214;16.388;2023-09-30T00:19:20;13.45;;;11.23;;
19329;SDS011;9799;48.214;16.388;2023-09-30T00:22:41;12.43;;;11.13;;
19329;SDS011;9799;48.214;16.388;2023-09-30T00:26:03;12.38;;;10.25;;
19329;SDS011;9799;48.214;16.388;2023-09-30T00:29:25;13.50;;;11.38;;
19329;SDS011;9799;48.214;16.388;2023-09-30T00:32:47;17.75;;;12.00;;
19329;SDS011;9799;48.214;16.388;2023-09-30T00:36:08;14.45;;;11.10;;
19329;SDS011;9799;48.214;16.388;2023-09-30T00:39:31;16.13;;;10.77;;
19329;SDS011;9799;48.214;16.388;2023-09-30T00:42:52;11.15;;;9.93;;
19329;SDS011;9799;48.214;16.388;2023-09-30T00:46:18;13.80;;;10.95;;
19329;SDS011;9799;48.214;16.388;2023-09-30T00:49:46;15.63;;;9.90;;
19329;SDS011;9799;48.214;16.388;2023-09-30T00:53:07;10.88;;;9.38;;
19329;SDS011;9799;48.214;16.388;2023-09-30T00:56:30;11.40;;;9.35;;
19329;SDS011;9799;48.214;16.388;2023-09-30T00:59:51;12.48;;;10.80;;
19329;SDS011;9799;48.214;16.388;2023-09-30T01:03:14;12.23;;;10.63;;
19329;SDS011;9799;48.214;16.388;2023-09-30T01:06:35;14.82;;;11.68;;
19329;SDS011;9799;48.214;16.388;2023-09-30T01:09:56;14.30;;;11.77;;
19329;SDS011;9799;48.214;16.388;2023-09-30T01:13:18;13.45;;;11.90;;
19329;SDS011;9799;48.214;16.388;2023-09-30T01:16:39;14.98;;;11.05;;
19329;SDS011;9799;48.214;16.388;2023-09-30T01:20:02;13.18;;;10.90;;
19329;SDS011;9799;48.214;16.388;2023-09-30T01:23:25;15.65;;;11.65;;
19329;SDS011;9799;48.214;16.388;2023-09-30T01:26:47;11.20;;;10.10;;
19329;SDS011;9799;48.214;16.388;2023-09-30T01:30:09;12.10;;;10.80;;
19329;SDS011;9799;48.214;16.388;2023-09-30T01:33:30;12.05;;;10.88;;
19329;SDS011;9799;48.214;16.388;2023-09-30T01:36:52;12.85;;;10.95;;
19329;SDS011;9799;48.214;16.388;2023-09-30T01:40:14;13.77;;;11.02;;
19329;SDS011;9799;48.214;16.388;2023-09-30T01:43:37;13.52;;;10.70;;
19329;SDS011;9799;48.214;16.388;2023-09-30T01:46:58;12.60;;;11.32;;
19329;SDS011;9799;48.214;16.388;2023-09-30T01:50:19;13.10;;;11.65;;
19329;SDS011;9799;48.214;16.388;2023-09-30T01:53:41;12.77;;;10.68;;
19329;SDS011;9799;48.214;16.388;2023-09-30T01:57:03;14.32;;;11.05;;
19329;SDS011;9799;48.214;16.388;2023-09-30T02:00:25;12.77;;;11.43;;
19329;SDS011;9799;48.214;16.388;2023-09-30T02:03:47;14.30;;;11.38;;
19329;SDS011;9799;48.214;16.388;2023-09-30T02:07:09;13.10;;;11.13;;
19329;SDS011;9799;48.214;16.388;2023-09-30T02:10:30;13.27;;;10.98;;
19329;SDS011;9799;48.214;16.388;2023-09-30T02:13:53;11.80;;;10.55;;
19329;SDS011;9799;48.214;16.388;2023-09-30T02:17:14;13.13;;;10.98;;
19329;SDS011;9799;48.214;16.388;2023-09-30T02:20:36;13.15;;;11.85;;
19329;SDS011;9799;48.214;16.388;2023-09-30T02:23:59;12.30;;;10.45;;
19329;SDS011;9799;48.214;16.388;2023-09-30T02:27:20;14.18;;;10.82;;
19329;SDS011;9799;48.214;16.388;2023-09-30T02:30:42;13.52;;;11.18;;
19329;SDS011;9799;48.214;16.388;2023-09-30T02:34:03;19.35;;;11.95;;
19329;SDS011;9799;48.214;16.388;2023-09-30T02:37:25;17.42;;;11.63;;
19329;SDS011;9799;48.214;16.388;2023-09-30T02:40:47;14.50;;;11.48;;
19329;SDS011;9799;48.214;16.388;2023-09-30T02:44:09;11.38;;;10.18;;
19329;SDS011;9799;48.214;16.388;2023-09-30T02:47:31;12.27;;;10.98;;
19329;SDS011;9799;48.214;16.388;2023-09-30T02:50:53;13.15;;;10.60;;
19329;SDS011;9799;48.214;16.388;2023-09-30T02:54:15;10.90;;;9.80;;
19329;SDS011;9799;48.214;16.388;2023-09-30T02:57:37;13.50;;;9.00;;
19329;SDS011;9799;48.214;16.388;2023-09-30T03:00:59;8.05;;;6.72;;
19329;SDS011;9799;48.214;16.388;2023-09-30T03:04:22;10.45;;;7.10;;
19329;SDS011;9799;48.214;16.388;2023-09-30T03:07:45;8.35;;;6.80;;
19329;SDS011;9799;48.214;16.388;2023-09-30T03:11:06;8.77;;;5.80;;
19329;SDS011;9799;48.214;16.388;2023-09-30T03:14:28;6.40;;;5.80;;
19329;SDS011;9799;48.214;16.388;2023-09-30T03:17:50;7.05;;;5.97;;
19329;SDS011;9799;48.214;16.388;2023-09-30T03:21:16;6.03;;;5.43;;
19329;SDS011;9799;48.214;16.388;2023-09-30T03:24:39;6.60;;;6.00;;
19329;SDS011;9799;48.214;16.388;2023-09-30T03:28:00;19.88;;;6.80;;
19329;SDS011;9799;48.214;16.388;2023-09-30T03:31:21;7.45;;;6.68;;
19329;SDS011;9799;48.214;16.388;2023-09-30T03:34:43;6.60;;;5.75;;
19329;SDS011;9799;48.214;16.388;2023-09-30T03:38:07;7.13;;;5.97;;
19329;SDS011;9799;48.214;16.388;2023-09-30T03:41:29;7.20;;;6.25;;
19329;SDS011;9799;48.214;16.388;2023-09-30T03:44:51;6.43;;;5.82;;
19329;SDS011;9799;48.214;16.388;2023-09-30T03:48:12;7.80;;;5.85;;
19329;SDS011;9799;48.214;16.388;2023-09-30T03:51:33;9.05;;;6.40;;
19329;SDS011;9799;48.214;16.388;2023-09-30T03:54:57;7.63;;;6.03;;
19329;SDS011;9799;48.214;16.388;2023-09-30T03:58:19;7.45;;;6.43;;
19329;SDS011;9799;48.214;16.388;2023-09-30T04:01:40;10.02;;;6.10;;
19329;SDS011;9799;48.214;16.388;2023-09-30T04:05:02;7.38;;;6.47;;
19329;SDS011;9799;48.214;16.388;2023-09-30T04:08:24;10.00;;;7.38;;
19329;SDS011;9799;48.214;16.388;2023-09-30T04:11:47;18.55;;;7.65;;
19329;SDS011;9799;48.214;16.388;2023-09-30T04:15:09;9.90;;;7.85;;
19329;SDS011;9799;48.214;16.388;2023-09-30T04:18:31;9.80;;;7.90;;
19329;SDS011;9799;48.214;16.388;2023-09-30T04:21:52;9.20;;;7.80;;
19329;SDS011;9799;48.214;16.388;2023-09-30T04:25:14;9.25;;;7.80;;
19329;SDS011;9799;48.214;16.388;2023-09-30T04:28:37;10.82;;;8.45;;
19329;SDS011;9799;48.214;16.388;2023-09-30T04:31:58;9.95;;;8.75;;
19329;SDS011;9799;48.214;16.388;2023-09-30T04:35:19;11.73;;;8.60;;
19329;SDS011;9799;48.214;16.388;2023-09-30T04:38:41;12.95;;;8.68;;
19329;SDS011;9799;48.214;16.388;2023-09-30T04:42:05;15.27;;;8.75;;
19329;SDS011;9799;48.214;16.388;2023-09-30T04:45:31;13.30;;;8.90;;
19329;SDS011;9799;48.214;16.388;2023-09-30T04:48:52;11.15;;;8.52;;
19329;SDS011;9799;48.214;16.388;2023-09-30T04:52:14;19.58;;;9.63;;
19329;SDS011;9799;48.214;16.388;2023-09-30T04:55:35;15.00;;;9.40;;
19329;SDS011;9799;48.214;16.388;2023-09-30T04:58:57;13.15;;;9.45;;
19329;SDS011;9799;48.214;16.388;2023-09-30T05:02:19;11.43;;;8.85;;
19329;SDS011;9799;48.214;16.388;2023-09-30T05:05:41;13.88;;;9.07;;
19329;SDS011;9799;48.214;16.388;2023-09-30T05:09:02;17.55;;;9.63;;
19329;SDS011;9799;48.214;16.388;2023-09-30T05:12:24;16.77;;;9.23;;
19329;SDS011;9799;48.214;16.388;2023-09-30T05:15:45;16.63;;;10.52;;
19329;SDS011;9799;48.214;16.388;2023-09-30T05:19:08;17.52;;;9.60;;
19329;SDS011;9799;48.214;16.388;2023-09-30T05:22:29;15.65;;;9.70;;
19329;SDS011;9799;48.214;16.388;2023-09-30T05:25:50;18.67;;;10.70;;
19329;SDS011;9799;48.214;16.388;2023-09-30T05:29:12;17.80;;;9.82;;
19329;SDS011;9799;48.214;16.388;2023-09-30T05:32:33;18.25;;;11.18;;
19329;SDS011;9799;48.214;16.388;2023-09-30T05:35:58;18.95;;;10.88;;
19329;SDS011;9799;48.214;16.388;2023-09-30T05:39:22;14.07;;;8.45;;
19329;SDS011;9799;48.214;16.388;2023-09-30T05:42:44;15.05;;;9.95;;
19329;SDS011;9799;48.214;16.388;2023-09-30T05:46:05;21.80;;;10.50;;
19329;SDS011;9799;48.214;16.388;2023-09-30T05:49:27;16.83;;;10.73;;
19329;SDS011;9799;48.214;16.388;2023-09-30T05:52:50;15.85;;;9.90;;
19329;SDS011;9799;48.214;16.388;2023-09-30T05:56:11;15.85;;;10.00;;
19329;SDS011;9799;48.214;16.388;2023-09-30T05:59:34;16.83;;;10.40;;
19329;SDS011;9799;48.214;16.388;2023-09-30T06:02:55;18.85;;;11.20;;
19329;SDS011;9799;48.214;16.388;2023-09-30T06:06:17;17.58;;;10.25;;
19329;SDS011;9799;48.214;16.388;2023-09-30T06:09:39;19.42;;;11.35;;
19329;SDS011;9799;48.214;16.388;2023-09-30T06:13:00;17.33;;;10.38;;
19329;SDS011;9799;48.214;16.388;2023-09-30T06:16:22;19.20;;;11.63;;
19329;SDS011;9799;48.214;16.388;2023-09-30T06:19:46;19.80;;;10.70;;
19329;SDS011;9799;48.214;16.388;2023-09-30T06:23:10;18.30;;;11.07;;
19329;SDS011;9799;48.214;16.388;2023-09-30T06:26:32;19.08;;;11.13;;
19329;SDS011;9799;48.214;16.388;2023-09-30T06:29:53;16.35;;;10.43;;
19329;SDS011;9799;48.214;16.388;2023-09-30T06:33:15;19.83;;;12.00;;
19329;SDS011;9799;48.214;16.388;2023-09-30T06:36:37;20.17;;;10.80;;
19329;SDS011;9799;48.214;16.388;2023-09-30T06:39:58;19.27;;;10.38;;
19329;SDS011;9799;48.214;16.388;2023-09-30T06:43:23;23.58;;;11.27;;
19329;SDS011;9799;48.214;16.388;2023-09-30T06:46:44;19.13;;;11.45;;
19329;SDS011;9799;48.214;16.388;2023-09-30T06:50:08;18.65;;;10.65;;
19329;SDS011;9799;48.214;16.388;2023-09-30T06:53:31;18.92;;;11.25;;
19329;SDS011;9799;48.214;16.388;2023-09-30T06:56:52;18.85;;;11.52;;
19329;SDS011;9799;48.214;16.388;2023-09-30T07:00:15;18.27;;;10.43;;
19329;SDS011;9799;48.214;16.388;2023-09-30T07:03:36;17.92;;;11.13;;
19329;SDS011;9799;48.214;16.388;2023-09-30T07:06:58;19.20;;;11.32;;
19329;SDS011;9799;48.214;16.388;2023-09-30T07:10:20;22.95;;;10.95;;
19329;SDS011;9799;48.214;16.388;2023-09-30T07:13:41;20.10;;;11.52;;
19329;SDS011;9799;48.214;16.388;2023-09-30T07:17:03;19.80;;;11.25;;
19329;SDS011;9799;48.214;16.388;2023-09-30T07:20:25;19.75;;;11.65;;
19329;SDS011;9799;48.214;16.388;2023-09-30T07:23:47;22.58;;;12.00;;
19329;SDS011;9799;48.214;16.388;2023-09-30T07:27:08;17.77;;;10.98;;
19329;SDS011;9799;48.214;16.388;2023-09-30T07:30:29;18.90;;;10.63;;
19329;SDS011;9799;48.214;16.388;2023-09-30T07:33:52;17.35;;;10.95;;
19329;SDS011;9799;48.214;16.388;2023-09-30T07:37:13;19.85;;;10.35;;
19329;SDS011;9799;48.214;16.388;2023-09-30T07:40:36;20.10;;;10.20;;
19329;SDS011;9799;48.214;16.388;2023-09-30T07:43:58;20.27;;;11.38;;
19329;SDS011;9799;48.214;16.388;2023-09-30T07:47:19;17.60;;;10.75;;
19329;SDS011;9799;48.214;16.388;2023-09-30T07:50:42;18.88;;;10.32;;
19329;SDS011;9799;48.214;16.388;2023-09-30T07:54:03;17.42;;;9.82;;
19329;SDS011;9799;48.214;16.388;2023-09-30T07:57:25;19.60;;;10.73;;
19329;SDS011;9799;48.214;16.388;2023-09-30T08:00:46;17.77;;;10.10;;
19329;SDS011;9799;48.214;16.388;2023-09-30T08:04:07;22.77;;;11.20;;
19329;SDS011;9799;48.214;16.388;2023-09-30T08:07:30;18.05;;;10.77;;
19329;SDS011;9799;48.214;16.388;2023-09-30T08:10:51;17.80;;;10.32;;
19329;SDS011;9799;48.214;16.388;2023-09-30T08:14:14;16.85;;;10.48;;
19329;SDS011;9799;48.214;16.388;2023-09-30T08:17:36;14.45;;;9.85;;
19329;SDS011;9799;48.214;16.388;2023-09-30T08:20:57;19.08;;;10.05;;
19329;SDS011;9799;48.214;16.388;2023-09-30T08:24:19;15.32;;;9.95;;
19329;SDS011;9799;48.214;16.388;2023-09-30T08:27:40;15.00;;;8.85;;
19329;SDS011;9799;48.214;16.388;2023-09-30T08:31:02;15.68;;;8.93;;
19329;SDS011;9799;48.214;16.388;2023-09-30T08:34:24;15.50;;;9.98;;
19329;SDS011;9799;48.214;16.388;2023-09-30T08:37:45;19.65;;;10.48;;
19329;SDS011;9799;48.214;16.388;2023-09-30T08:41:07;17.45;;;10.80;;
19329;SDS011;9799;48.214;16.388;2023-09-30T08:44:30;16.73;;;9.63;;
19329;SDS011;9799;48.214;16.388;2023-09-30T08:47:51;26.40;;;11.57;;
19329;SDS011;9799;48.214;16.388;2023-09-30T08:51:12;16.63;;;9.93;;
19329;SDS011;9799;48.214;16.388;2023-09-30T08:54:33;20.63;;;10.27;;
19329;SDS011;9799;48.214;16.388;2023-09-30T08:57:56;18.35;;;9.35;;
19329;SDS011;9799;48.214;16.388;2023-09-30T09:01:17;19.08;;;10.07;;
19329;SDS011;9799;48.214;16.388;2023-09-30T09:04:39;17.92;;;9.80;;
19329;SDS011;9799;48.214;16.388;2023-09-30T09:08:00;18.10;;;10.32;;
19329;SDS011;9799;48.214;16.388;2023-09-30T09:11:22;15.50;;;9.48;;
19329;SDS011;9799;48.214;16.388;2023-09-30T09:14:45;14.90;;;9.52;;
19329;SDS011;9799;48.214;16.388;2023-09-30T09:18:07;17.73;;;9.13;;
19329;SDS011;9799;48.214;16.388;2023-09-30T09:21:29;17.33;;;8.82;;
19329;SDS011;9799;48.214;16.388;2023-09-30T09:24:50;16.52;;;9.38;;
19329;SDS011;9799;48.214;16.388;2023-09-30T09:28:12;18.17;;;9.07;;
19329;SDS011;9799;48.214;16.388;2023-09-30T09:31:37;13.75;;;8.77;;
19329;SDS011;9799;48.214;16.388;2023-09-30T09:35:00;15.00;;;8.80;;
19329;SDS011;9799;48.214;16.388;2023-09-30T09:38:23;12.18;;;7.72;;
19329;SDS011;9799;48.214;16.388;2023-09-30T09:41:50;16.45;;;8.52;;
19329;SDS011;9799;48.214;16.388;2023-09-30T09:45:12;15.43;;;9.38;;
19329;SDS011;9799;48.214;16.388;2023-09-30T09:48:35;18.00;;;9.50;;
19329;SDS011;9799;48.214;16.388;2023-09-30T09:51:56;12.57;;;7.72;;
19329;SDS011;9799;48.214;16.388;2023-09-30T09:55:19;15.68;;;8.57;;
19329;SDS011;9799;48.214;16.388;2023-09-30T09:58:41;13.40;;;8.65;;
19329;SDS011;9799;48.214;16.388;2023-09-30T10:02:03;14.25;;;8.85;;
19329;SDS011;9799;48.214;16.388;2023-09-30T10:05:32;14.88;;;8.60;;
19329;SDS011;9799;48.214;16.388;2023-09-30T10:08:54;14.70;;;8.60;;
19329;SDS011;9799;48.214;16.388;2023-09-30T10:12:17;16.58;;;9.52;;
19329;SDS011;9799;48.214;16.388;2023-09-30T10:15:40;15.50;;;8.73;;
19329;SDS011;9799;48.214;16.388;2023-09-30T10:19:07;17.17;;;9.15;;
19329;SDS011;9799;48.214;16.388;2023-09-30T10:22:31;16.13;;;8.57;;
19329;SDS011;9799;48.214;16.388;2023-09-30T10:25:53;16.90;;;8.20;;
19329;SDS011;9799;48.214;16.388;2023-09-30T10:29:17;16.02;;;8.75;;
19329;SDS011;9799;48.214;16.388;2023-09-30T10:36:30;14.27;;;8.63;;
19329;SDS011;9799;48.214;16.388;2023-09-30T10:39:54;15.57;;;8.40;;
19329;SDS011;9799;48.214;16.388;2023-09-30T10:43:28;15.63;;;7.45;;
19329;SDS011;9799;48.214;16.388;2023-09-30T10:46:51;14.15;;;8.23;;
19329;SDS011;9799;48.214;16.388;2023-09-30T10:54:13;15.60;;;8.13;;
19329;SDS011;9799;48.214;16.388;2023-09-30T10:57:36;16.60;;;8.52;;
19329;SDS011;9799;48.214;16.388;2023-09-30T11:00:57;15.40;;;8.18;;
19329;SDS011;9799;48.214;16.388;2023-09-30T11:04:19;15.02;;;8.88;;
19329;SDS011;9799;48.214;16.388;2023-09-30T11:07:40;16.58;;;8.85;;
19329;SDS011;9799;48.214;16.388;2023-09-30T11:11:03;18.95;;;8.35;;
19329;SDS011;9799;48.214;16.388;2023-09-30T11:14:27;16.45;;;8.15;;
19329;SDS011;9799;48.214;16.388;2023-09-30T11:17:49;13.30;;;7.70;;
19329;SDS011;9799;48.214;16.388;2023-09-30T11:21:11;18.83;;;9.77;;
19329;SDS011;9799;48.214;16.388;2023-09-30T11:24:34;15.45;;;8.57;;
19329;SDS011;9799;48.214;16.388;2023-09-30T11:28:11;13.00;;;7.60;;
19329;SDS011;9799;48.214;16.388;2023-09-30T11:31:36;14.20;;;7.63;;
19329;SDS011;9799;48.214;16.388;2023-09-30T11:34:58;14.65;;;7.40;;
19329;SDS011;9799;48.214;16.388;2023-09-30T11:38:19;15.80;;;7.78;;
19329;SDS011;9799;48.214;16.388;2023-09-30T11:41:42;14.75;;;8.05;;
19329;SDS011;9799;48.214;16.388;2023-09-30T11:45:17;14.07;;;8.40;;
19329;SDS011;9799;48.214;16.388;2023-09-30T11:48:55;11.60;;;6.78;;
19329;SDS011;9799;48.214;16.388;2023-09-30T11:52:25;13.40;;;7.50;;
19329;SDS011;9799;48.214;16.388;2023-09-30T11:55:47;12.63;;;7.45;;
19329;SDS011;9799;48.214;16.388;2023-09-30T11:59:08;16.90;;;7.35;;
19329;SDS011;9799;48.214;16.388;2023-09-30T12:02:30;15.00;;;7.32;;
19329;SDS011;9799;48.214;16.388;2023-09-30T12:05:55;13.73;;;6.82;;
19329;SDS011;9799;48.214;16.388;2023-09-30T12:09:20;12.80;;;7.47;;
19329;SDS011;9799;48.214;16.388;2023-09-30T12:12:44;13.57;;;7.03;;
19329;SDS011;9799;48.214;16.388;2023-09-30T12:16:06;12.55;;;8.02;;
19329;SDS011;9799;48.214;16.388;2023-09-30T12:19:27;14.38;;;7.60;;
19329;SDS011;9799;48.214;16.388;2023-09-30T12:22:50;13.60;;;8.18;;
19329;SDS011;9799;48.214;16.388;2023-09-30T12:26:13;12.15;;;7.30;;
19329;SDS011;9799;48.214;16.388;2023-09-30T12:29:34;14.20;;;8.25;;
19329;SDS011;9799;48.214;16.388;2023-09-30T12:32:57;13.82;;;7.45;;
19329;SDS011;9799;48.214;16.388;2023-09-30T12:36:19;16.48;;;8.77;;
19329;SDS011;9799;48.214;16.388;2023-09-30T12:39:42;14.13;;;7.50;;
19329;SDS011;9799;48.214;16.388;2023-09-30T12:43:04;11.55;;;7.22;;
19329;SDS011;9799;48.214;16.388;2023-09-30T12:46:26;12.32;;;6.60;;
19329;SDS011;9799;48.214;16.388;2023-09-30T12:49:47;11.27;;;6.25;;
19329;SDS011;9799;48.214;16.388;2023-09-30T12:53:08;12.25;;;7.22;;
19329;SDS011;9799;48.214;16.388;2023-09-30T12:56:32;15.95;;;7.50;;
19329;SDS011;9799;48.214;16.388;2023-09-30T12:59:53;13.57;;;8.02;;
19329;SDS011;9799;48.214;16.388;2023-09-30T13:03:14;12.30;;;7.65;;
19329;SDS011;9799;48.214;16.388;2023-09-30T13:06:36;13.38;;;7.93;;
19329;SDS011;9799;48.214;16.388;2023-09-30T13:09:57;16.75;;;7.32;;
19329;SDS011;9799;48.214;16.388;2023-09-30T13:13:21;16.65;;;7.25;;
19329;SDS011;9799;48.214;16.388;2023-09-30T13:16:43;9.57;;;5.85;;
19329;SDS011;9799;48.214;16.388;2023-09-30T13:20:05;10.27;;;5.78;;
19329;SDS011;9799;48.214;16.388;2023-09-30T13:23:29;11.98;;;6.32;;
19329;SDS011;9799;48.214;16.388;2023-09-30T13:26:50;11.30;;;6.65;;
19329;SDS011;9799;48.214;16.388;2023-09-30T13:30:13;13.10;;;7.15;;
19329;SDS011;9799;48.214;16.388;2023-09-30T13:33:34;11.13;;;6.70;;
19329;SDS011;9799;48.214;16.388;2023-09-30T13:36:55;10.02;;;6.57;;
19329;SDS011;9799;48.214;16.388;2023-09-30T13:40:17;12.38;;;8.23;;
19329;SDS011;9799;48.214;16.388;2023-09-30T13:43:38;18.23;;;10.25;;
19329;SDS011;9799;48.214;16.388;2023-09-30T13:47:01;18.52;;;9.32;;
19329;SDS011;9799;48.214;16.388;2023-09-30T13:50:23;15.45;;;8.07;;
19329;SDS011;9799;48.214;16.388;2023-09-30T13:53:44;16.75;;;8.45;;
19329;SDS011;9799;48.214;16.388;2023-09-30T13:57:06;16.60;;;9.25;;
19329;SDS011;9799;48.214;16.388;2023-09-30T14:00:27;19.77;;;10.15;;
19329;SDS011;9799;48.214;16.388;2023-09-30T14:03:49;14.38;;;8.15;;
19329;SDS011;9799;48.214;16.388;2023-09-30T14:07:14;12.75;;;8.35;;
19329;SDS011;9799;48.214;16.388;2023-09-30T14:10:37;14.40;;;8.95;;
19329;SDS011;9799;48.214;16.388;2023-09-30T14:13:58;13.00;;;8.73;;
19329;SDS011;9799;48.214;16.388;2023-09-30T14:17:20;18.70;;;9.35;;
19329;SDS011;9799;48.214;16.388;2023-09-30T14:20:42;15.90;;;9.57;;
19329;SDS011;9799;48.214;16.388;2023-09-30T14:24:04;17.42;;;9.52;;
19329;SDS011;9799;48.214;16.388;2023-09-30T14:27:26;14.10;;;8.55;;
19329;SDS011;9799;48.214;16.388;2023-09-30T14:30:47;15.20;;;8.93;;
19329;SDS011;9799;48.214;16.388;2023-09-30T14:34:09;16.52;;;9.23;;
19329;SDS011;9799;48.214;16.388;2023-09-30T14:37:32;16.05;;;8.95;;
19329;SDS011;9799;48.214;16.388;2023-09-30T14:40:53;15.55;;;10.18;;
19329;SDS011;9799;48.214;16.388;2023-09-30T14:44:14;13.15;;;8.20;;
19329;SDS011;9799;48.214;16.388;2023-09-30T14:47:36;14.63;;;7.95;;
19329;SDS011;9799;48.214;16.388;2023-09-30T14:50:57;15.05;;;8.27;;
19329;SDS011;9799;48.214;16.388;2023-09-30T14:54:20;12.63;;;6.43;;
19329;SDS011;9799;48.214;16.388;2023-09-30T14:57:41;11.98;;;7.10;;
19329;SDS011;9799;48.214;16.388;2023-09-30T15:01:07;12.13;;;5.78;;
19329;SDS011;9799;48.214;16.388;2023-09-30T15:04:29;11.52;;;6.60;;
19329;SDS011;9799;48.214;16.388;2023-09-30T15:07:51;10.43;;;6.03;;
19329;SDS011;9799;48.214;16.388;2023-09-30T15:11:14;9.82;;;6.22;;
19329;SDS011;9799;48.214;16.388;2023-09-30T15:14:35;9.98;;;5.93;;
19329;SDS011;9799;48.214;16.388;2023-09-30T15:17:56;10.02;;;5.28;;
19329;SDS011;9799;48.214;16.388;2023-09-30T15:21:18;10.70;;;5.70;;
19329;SDS011;9799;48.214;16.388;2023-09-30T15:24:39;9.20;;;5.43;;
19329;SDS011;9799;48.214;16.388;2023-09-30T15:28:02;6.53;;;4.25;;
19329;SDS011;9799;48.214;16.388;2023-09-30T15:31:26;7.25;;;4.15;;
19329;SDS011;9799;48.214;16.388;2023-09-30T15:34:48;5.40;;;3.83;;
19329;SDS011;9799;48.214;16.388;2023-09-30T15:38:10;6.22;;;3.88;;
19329;SDS011;9799;48.214;16.388;2023-09-30T15:41:31;6.75;;;4.75;;
19329;SDS011;9799;48.214;16.388;2023-09-30T15:44:54;5.93;;;4.25;;
19329;SDS011;9799;48.214;16.388;2023-09-30T15:48:17;6.57;;;4.43;;
19329;SDS011;9799;48.214;16.388;2023-09-30T15:51:39;5.90;;;3.10;;
19329;SDS011;9799;48.214;16.388;2023-09-30T15:55:00;5.75;;;3.60;;
19329;SDS011;9799;48.214;16.388;2023-09-30T15:58:21;4.95;;;3.90;;
19329;SDS011;9799;48.214;16.388;2023-09-30T16:01:45;5.25;;;3.05;;
19329;SDS011;9799;48.214;16.388;2023-09-30T16:05:06;5.70;;;3.55;;
19329;SDS011;9799;48.214;16.388;2023-09-30T16:08:27;4.80;;;3.55;;
19329;SDS011;9799;48.214;16.388;2023-09-30T16:11:48;4.07;;;3.45;;
19329;SDS011;9799;48.214;16.388;2023-09-30T16:15:10;7.20;;;3.25;;
19329;SDS011;9799;48.214;16.388;2023-09-30T16:18:34;6.25;;;5.50;;
19329;SDS011;9799;48.214;16.388;2023-09-30T16:21:55;5.78;;;4.20;;
19329;SDS011;9799;48.214;16.388;2023-09-30T16:25:16;4.20;;;2.90;;
19329;SDS011;9799;48.214;16.388;2023-09-30T16:28:37;2.95;;;2.47;;
19329;SDS011;9799;48.214;16.388;2023-09-30T16:31:59;7.55;;;3.05;;
19329;SDS011;9799;48.214;16.388;2023-09-30T16:35:21;3.28;;;2.22;;
19329;SDS011;9799;48.214;16.388;2023-09-30T16:38:43;5.68;;;2.90;;
19329;SDS011;9799;48.214;16.388;2023-09-30T16:42:04;2.58;;;2.22;;
19329;SDS011;9799;48.214;16.388;2023-09-30T16:45:26;15.10;;;1.80;;
19329;SDS011;9799;48.214;16.388;2023-09-30T16:48:47;2.25;;;1.70;;
19329;SDS011;9799;48.214;16.388;2023-09-30T16:52:10;3.55;;;1.85;;
19329;SDS011;9799;48.214;16.388;2023-09-30T16:55:33;3.92;;;2.05;;
19329;SDS011;9799;48.214;16.388;2023-09-30T16:58:54;3.70;;;2.17;;
19329;SDS011;9799;48.214;16.388;2023-09-30T17:02:16;3.05;;;2.38;;
19329;SDS011;9799;48.214;16.388;2023-09-30T17:05:40;4.03;;;2.35;;
19329;SDS011;9799;48.214;16.388;2023-09-30T17:09:04;2.33;;;1.90;;
19329;SDS011;9799;48.214;16.388;2023-09-30T17:12:25;2.80;;;2.10;;
19329;SDS011;9799;48.214;16.388;2023-09-30T17:15:47;2.70;;;2.35;;
19329;SDS011;9799;48.214;16.388;2023-09-30T17:19:09;3.38;;;2.20;;
19329;SDS011;9799;48.214;16.388;2023-09-30T17:22:30;4.15;;;2.17;;
19329;SDS011;9799;48.214;16.388;2023-09-30T17:25:52;2.28;;;1.88;;
19329;SDS011;9799;48.214;16.388;2023-09-30T17:29:19;4.25;;;2.30;;
19329;SDS011;9799;48.214;16.388;2023-09-30T17:32:41;4.50;;;2.53;;
19329;SDS011;9799;48.214;16.388;2023-09-30T17:36:03;2.58;;;2.03;;
19329;SDS011;9799;48.214;16.388;2023-09-30T17:39:25;3.10;;;2.00;;
19329;SDS011;9799;48.214;16.388;2023-09-30T17:42:48;3.20;;;2.08;;
19329;SDS011;9799;48.214;16.388;2023-09-30T17:46:13;6.15;;;2.55;;
19329;SDS011;9799;48.214;16.388;2023-09-30T17:49:37;3.10;;;2.22;;
19329;SDS011;9799;48.214;16.388;2023-09-30T17:52:59;4.32;;;2.78;;
19329;SDS011;9799;48.214;16.388;2023-09-30T17:56:21;4.20;;;2.15;;
19329;SDS011;9799;48.214;16.388;2023-09-30T17:59:46;4.65;;;2.90;;
19329;SDS011;9799;48.214;16.388;2023-09-30T18:03:09;3.63;;;2.75;;
19329;SDS011;9799;48.214;16.388;2023-09-30T18:06:32;4.38;;;3.00;;
19329;SDS011;9799;48.214;16.388;2023-09-30T18:09:54;4.57;;;3.10;;
19329;SDS011;9799;48.214;16.388;2023-09-30T18:13:17;4.18;;;2.97;;
19329;SDS011;9799;48.214;16.388;2023-09-30T18:16:41;4.13;;;3.13;;
19329;SDS011;9799;48.214;16.388;2023-09-30T18:20:03;4.32;;;2.97;;
19329;SDS011;9799;48.214;16.388;2023-09-30T18:23:26;5.45;;;3.13;;
19329;SDS011;9799;48.214;16.388;2023-09-30T18:26:47;5.28;;;3.22;;
19329;SDS011;9799;48.214;16.388;2023-09-30T18:30:11;3.58;;;2.60;;
19329;SDS011;9799;48.214;16.388;2023-09-30T18:33:34;5.25;;;3.30;;
19329;SDS011;9799;48.214;16.388;2023-09-30T18:36:57;6.55;;;3.25;;
19329;SDS011;9799;48.214;16.388;2023-09-30T18:40:18;5.45;;;2.90;;
19329;SDS011;9799;48.214;16.388;2023-09-30T18:43:40;9.45;;;3.97;;
19329;SDS011;9799;48.214;16.388;2023-09-30T18:47:03;6.70;;;3.60;;
19329;SDS011;9799;48.214;16.388;2023-09-30T18:50:29;4.32;;;3.17;;
19329;SDS011;9799;48.214;16.388;2023-09-30T18:53:51;7.07;;;3.28;;
19329;SDS011;9799;48.214;16.388;2023-09-30T18:57:13;8.68;;;3.53;;
19329;SDS011;9799;48.214;16.388;2023-09-30T19:00:36;4.90;;;3.45;;
19329;SDS011;9799;48.214;16.388;2023-09-30T19:03:58;6.47;;;3.60;;
19329;SDS011;9799;48.214;16.388;2023-09-30T19:07:23;4.63;;;3.15;;
19329;SDS011;9799;48.214;16.388;2023-09-30T19:10:46;4.60;;;2.95;;
19329;SDS011;9799;48.214;16.388;2023-09-30T19:14:08;5.15;;;3.53;;
19329;SDS011;9799;48.214;16.388;2023-09-30T19:17:33;6.18;;;3.58;;
19329;SDS011;9799;48.214;16.388;2023-09-30T19:20:55;7.57;;;4.88;;
19329;SDS011;9799;48.214;16.388;2023-09-30T19:24:18;6.97;;;3.95;;
19329;SDS011;9799;48.214;16.388;2023-09-30T19:27:41;11.90;;;8.80;;
19329;SDS011;9799;48.214;16.388;2023-09-30T19:31:03;5.90;;;4.28;;
19329;SDS011;9799;48.214;16.388;2023-09-30T19:34:25;4.80;;;3.55;;
19329;SDS011;9799;48.214;16.388;2023-09-30T19:37:48;5.80;;;3.83;;
19329;SDS011;9799;48.214;16.388;2023-09-30T19:41:14;8.63;;;3.95;;
19329;SDS011;9799;48.214;16.388;2023-09-30T19:44:37;7.28;;;4.22;;
19329;SDS011;9799;48.214;16.388;2023-09-30T19:48:00;4.78;;;3.55;;
19329;SDS011;9799;48.214;16.388;2023-09-30T19:51:22;6.18;;;3.42;;
19329;SDS011;9799;48.214;16.388;2023-09-30T19:54:43;6.50;;;3.67;;
19329;SDS011;9799;48.214;16.388;2023-09-30T19:58:07;7.00;;;4.15;;
19329;SDS011;9799;48.214;16.388;2023-09-30T20:01:29;7.38;;;3.80;;
19329;SDS011;9799;48.214;16.388;2023-09-30T20:04:50;5.80;;;3.90;;
19329;SDS011;9799;48.214;16.388;2023-09-30T20:08:12;6.00;;;3.90;;
19329;SDS011;9799;48.214;16.388;2023-09-30T20:11:34;7.13;;;3.53;;